Time;durP1;ratioP1;P1;durP2;ratioP2;P2;SDS_P1;SDS_P2;PMS_P1;PMS_P2;Temp;Humidity;BMP_temperature;BMP_pressure;BME280_temperature;BME280_humidity;BME280_pressure;Samples;Min_cycle;Max_cycle;Signal;HPM_P1;HPM_P2
2022/07/17 00:00:58;;;;;;;3.28;2.08;;;11.50;99.90;;;;;;5136416;27;20035;-27
2022/07/17 00:03:24;;;;;;;4.10;2.22;;;11.50;99.90;;;;;;5142504;27;20031;-27
2022/07/17 00:05:50;;;;;;;2.53;1.90;;;11.40;99.90;;;;;;5144416;27;20365;-27
2022/07/17 00:08:15;;;;;;;6.35;1.67;;;11.40;99.90;;;;;;5128669;27;20456;-27
2022/07/17 00:10:43;;;;;;;5.30;2.28;;;11.40;99.90;;;;;;5144431;27;20035;-27
2022/07/17 00:13:09;;;;;;;3.78;1.98;;;11.40;99.90;;;;;;5130715;27;20538;-27
2022/07/17 00:15:35;;;;;;;3.00;2.00;;;11.40;99.90;;;;;;5144620;27;20039;-27
2022/07/17 00:18:02;;;;;;;4.60;1.70;;;11.30;99.90;;;;;;5125863;27;20395;-27
2022/07/17 00:20:29;;;;;;;3.03;1.80;;;11.30;99.90;;;;;;5146247;27;20039;-27
2022/07/17 00:22:55;;;;;;;3.22;1.83;;;11.30;99.90;;;;;;5141443;27;20172;-27
2022/07/17 00:25:21;;;;;;;3.05;1.65;;;11.20;99.90;;;;;;5139793;27;20058;-27
2022/07/17 00:27:47;;;;;;;5.30;3.08;;;11.20;99.90;;;;;;5141375;27;20042;-27
2022/07/17 00:30:13;;;;;;;2.47;1.88;;;11.20;99.90;;;;;;5140257;27;20035;-27
2022/07/17 00:32:40;;;;;;;2.70;2.28;;;11.10;99.90;;;;;;5143254;27;20079;-27
2022/07/17 00:35:07;;;;;;;3.97;2.10;;;11.10;99.90;;;;;;5134400;27;20043;-27
2022/07/17 00:37:41;;;;;;;3.90;2.00;;;11.10;99.90;;;;;;5147527;27;20122;-27
2022/07/17 00:40:08;;;;;;;3.75;2.08;;;11.00;99.90;;;;;;5131372;27;20498;-27
2022/07/17 00:42:34;;;;;;;4.55;1.70;;;11.00;99.90;;;;;;5136837;27;20031;-27
2022/07/17 00:45:00;;;;;;;3.03;2.15;;;10.90;99.90;;;;;;5131185;27;20401;-27
2022/07/17 00:47:26;;;;;;;2.85;1.98;;;10.90;99.90;;;;;;5146003;27;20035;-27
2022/07/17 00:49:51;;;;;;;3.03;1.98;;;10.90;99.90;;;;;;5144098;27;20106;-27
2022/07/17 00:52:18;;;;;;;3.47;2.08;;;10.80;99.90;;;;;;5144771;27;20079;-27
2022/07/17 00:54:46;;;;;;;3.92;2.08;;;10.80;99.90;;;;;;5143298;27;20082;-27
2022/07/17 00:57:14;;;;;;;5.53;2.10;;;10.80;99.90;;;;;;5132749;27;20034;-27
2022/07/17 00:59:44;;;;;;;3.95;2.47;;;10.80;99.90;;;;;;5124427;27;20066;-27
2022/07/17 01:02:12;;;;;;;5.90;2.38;;;10.80;99.90;;;;;;5138416;27;20109;-27
2022/07/17 01:04:41;;;;;;;5.07;2.28;;;10.70;99.90;;;;;;5135905;27;20078;-27
2022/07/17 01:07:07;;;;;;;2.88;1.92;;;10.70;99.90;;;;;;5136231;27;20041;-27
2022/07/17 01:09:34;;;;;;;2.60;2.05;;;10.70;99.90;;;;;;5131715;27;20031;-27
2022/07/17 01:12:01;;;;;;;4.38;2.60;;;10.70;99.90;;;;;;5139127;27;20078;-27
2022/07/17 01:14:27;;;;;;;3.90;2.00;;;10.60;99.90;;;;;;5139857;27;20046;-27
2022/07/17 01:16:54;;;;;;;3.03;1.98;;;10.60;99.90;;;;;;5146634;27;20488;-27
2022/07/17 01:19:21;;;;;;;2.80;1.80;;;10.60;99.90;;;;;;5142872;27;20043;-27
2022/07/17 01:21:49;;;;;;;2.58;1.77;;;10.60;99.90;;;;;;5141920;27;20038;-27
2022/07/17 01:24:16;;;;;;;4.25;2.17;;;10.50;99.90;;;;;;5145076;27;20092;-24
2022/07/17 01:26:47;;;;;;;2.95;2.13;;;10.50;99.90;;;;;;5120648;27;20043;-25
2022/07/17 01:29:14;;;;;;;4.97;2.05;;;10.50;99.90;;;;;;5147700;27;20062;-24
2022/07/17 01:31:41;;;;;;;2.67;1.98;;;10.50;99.90;;;;;;5149124;27;20031;-25
2022/07/17 01:34:09;;;;;;;4.40;2.20;;;10.40;99.90;;;;;;5140303;27;20043;-24
2022/07/17 01:36:35;;;;;;;3.60;2.40;;;10.50;99.90;;;;;;5145750;27;20027;-24
2022/07/17 01:39:01;;;;;;;3.80;2.42;;;10.40;99.90;;;;;;5149875;27;20041;-25
2022/07/17 01:41:27;;;;;;;2.67;2.10;;;10.40;99.90;;;;;;5142799;27;20514;-24
2022/07/17 01:43:53;;;;;;;3.92;2.50;;;10.40;99.90;;;;;;5147648;27;20034;-24
2022/07/17 01:46:18;;;;;;;4.22;2.85;;;10.40;99.90;;;;;;5134858;27;20046;-24
2022/07/17 01:48:44;;;;;;;5.82;2.50;;;10.30;99.90;;;;;;5131295;27;20117;-24
2022/07/17 01:51:15;;;;;;;4.32;2.30;;;10.30;99.90;;;;;;5134567;27;20047;-24
2022/07/17 01:53:41;;;;;;;4.47;2.20;;;10.30;99.90;;;;;;5135021;27;20459;-25
2022/07/17 01:56:07;;;;;;;3.80;2.20;;;10.30;99.90;;;;;;5140048;27;20041;-24
2022/07/17 01:58:33;;;;;;;4.75;2.70;;;10.30;99.90;;;;;;5151284;27;20439;-24
2022/07/17 02:00:59;;;;;;;5.10;2.83;;;10.30;99.90;;;;;;5144651;27;20057;-24
2022/07/17 02:03:25;;;;;;;5.00;2.55;;;10.30;99.90;;;;;;5131538;27;20039;-24
2022/07/17 02:05:51;;;;;;;6.50;3.13;;;10.20;99.90;;;;;;5146670;27;20053;-24
2022/07/17 02:08:17;;;;;;;3.30;2.65;;;10.20;99.90;;;;;;5146194;27;20446;-24
2022/07/17 02:10:43;;;;;;;4.65;3.00;;;10.20;99.90;;;;;;5136517;27;20115;-24
2022/07/17 02:13:08;;;;;;;2.85;2.58;;;10.20;99.90;;;;;;5137386;27;20080;-24
2022/07/17 02:15:34;;;;;;;4.07;2.60;;;10.10;99.90;;;;;;5154070;27;20105;-24
2022/07/17 02:18:00;;;;;;;4.07;3.15;;;10.20;99.90;;;;;;5148715;27;20035;-24
2022/07/17 02:20:26;;;;;;;3.15;2.85;;;10.10;99.90;;;;;;5137742;27;20026;-24
2022/07/17 02:22:56;;;;;;;4.45;2.65;;;10.10;99.90;;;;;;5143312;27;20503;-24
2022/07/17 02:25:22;;;;;;;5.03;2.70;;;10.10;99.90;;;;;;5138972;27;20048;-24
2022/07/17 02:27:47;;;;;;;3.53;2.78;;;10.10;99.90;;;;;;5156100;27;20046;-25
2022/07/17 02:30:16;;;;;;;4.82;3.13;;;10.10;99.90;;;;;;5153020;27;20034;-27
2022/07/17 02:32:45;;;;;;;5.13;2.97;;;10.00;99.90;;;;;;5151427;27;20487;-27
2022/07/17 02:35:12;;;;;;;3.50;2.50;;;10.10;99.90;;;;;;5143427;27;20035;-27
2022/07/17 02:37:38;;;;;;;4.32;2.50;;;10.00;99.90;;;;;;5147609;27;20402;-27
2022/07/17 02:40:05;;;;;;;4.65;3.05;;;10.00;99.90;;;;;;5141081;27;20039;-27
2022/07/17 02:42:34;;;;;;;4.50;3.08;;;10.00;99.90;;;;;;5132312;27;20034;-27
2022/07/17 02:45:00;;;;;;;5.80;3.17;;;9.90;99.90;;;;;;5145182;27;20043;-27
2022/07/17 02:47:33;;;;;;;4.32;3.15;;;9.90;99.90;;;;;;5148832;27;20126;-27
2022/07/17 02:50:05;;;;;;;5.43;2.58;;;9.90;99.90;;;;;;5146052;27;20041;-27
2022/07/17 02:52:30;;;;;;;5.97;2.92;;;9.90;99.90;;;;;;5143538;27;20039;-27
2022/07/17 02:54:56;;;;;;;4.78;2.65;;;9.80;99.90;;;;;;5153174;27;20130;-27
2022/07/17 02:57:22;;;;;;;4.28;3.00;;;9.90;99.90;;;;;;5137058;27;20035;-24
2022/07/17 02:59:48;;;;;;;5.40;3.20;;;9.80;99.90;;;;;;5146346;27;20047;-24
2022/07/17 03:02:14;;;;;;;6.15;3.40;;;9.80;99.90;;;;;;5151287;27;20064;-24
2022/07/17 03:04:43;;;;;;;4.45;3.00;;;9.80;99.90;;;;;;5150393;27;20410;-27
2022/07/17 03:07:09;;;;;;;3.50;2.80;;;9.80;99.90;;;;;;5151485;27;20083;-27
2022/07/17 03:09:35;;;;;;;3.47;2.78;;;9.70;99.90;;;;;;5116963;27;20034;-27
2022/07/17 03:12:00;;;;;;;3.30;3.00;;;9.70;99.90;;;;;;5153784;27;20391;-27
2022/07/17 03:14:26;;;;;;;4.10;2.72;;;9.70;99.90;;;;;;5136083;27;20070;-27
2022/07/17 03:16:53;;;;;;;3.58;3.15;;;9.70;99.90;;;;;;5141900;27;20027;-27
2022/07/17 03:19:18;;;;;;;5.35;3.08;;;9.70;99.90;;;;;;5146895;27;20522;-27
2022/07/17 03:21:47;;;;;;;2.95;2.53;;;9.60;99.90;;;;;;5128765;27;20038;-27
2022/07/17 03:24:16;;;;;;;4.80;2.90;;;9.60;99.90;;;;;;5133136;27;20054;-27
2022/07/17 03:26:42;;;;;;;4.40;2.80;;;9.60;99.90;;;;;;5137994;27;20054;-27
2022/07/17 03:29:07;;;;;;;5.18;3.05;;;9.60;99.90;;;;;;5129825;27;20031;-27
2022/07/17 03:31:33;;;;;;;3.28;2.80;;;9.50;99.90;;;;;;5146689;27;20565;-27
2022/07/17 03:33:59;;;;;;;3.95;3.05;;;9.60;99.90;;;;;;5141092;27;20129;-27
2022/07/17 03:36:27;;;;;;;4.93;3.40;;;9.60;99.90;;;;;;5147452;27;20388;-27
2022/07/17 03:38:53;;;;;;;3.30;2.80;;;9.50;99.90;;;;;;5134334;27;20029;-27
2022/07/17 03:41:19;;;;;;;3.60;3.03;;;9.50;99.90;;;;;;5134996;27;20034;-27
2022/07/17 03:43:45;;;;;;;6.07;3.17;;;9.50;99.90;;;;;;5140341;27;20127;-24
2022/07/17 03:46:10;;;;;;;4.32;2.80;;;9.40;99.90;;;;;;5147106;27;20039;-24
2022/07/17 03:48:37;;;;;;;3.83;2.97;;;9.40;99.90;;;;;;5126984;27;20066;-24
2022/07/17 03:51:03;;;;;;;7.32;2.97;;;9.50;99.90;;;;;;5150952;27;20043;-24
2022/07/17 03:53:28;;;;;;;3.45;2.53;;;9.40;99.90;;;;;;5139446;27;20115;-25
2022/07/17 03:55:54;;;;;;;5.03;3.15;;;9.40;99.90;;;;;;5146075;27;20084;-24
2022/07/17 03:58:20;;;;;;;3.90;2.95;;;9.40;99.90;;;;;;5141031;27;20471;-24
2022/07/17 04:00:45;;;;;;;4.50;3.63;;;9.40;99.90;;;;;;5148024;27;20034;-24
2022/07/17 04:03:11;;;;;;;3.75;3.17;;;9.40;99.90;;;;;;5146820;27;20455;-24
2022/07/17 04:05:37;;;;;;;3.42;3.08;;;9.40;99.90;;;;;;5147583;27;20488;-24
2022/07/17 04:08:06;;;;;;;3.53;3.22;;;9.40;99.90;;;;;;5145499;27;20091;-24
2022/07/17 04:10:31;;;;;;;6.22;3.28;;;9.40;99.90;;;;;;5144105;27;20042;-24
2022/07/17 04:12:57;;;;;;;4.68;3.47;;;9.40;99.90;;;;;;5152642;27;20050;-24
2022/07/17 04:18:08;;;;;;;6.60;3.47;;;9.50;99.90;;;;;;5135227;27;20042;-27
2022/07/17 04:20:34;;;;;;;4.10;2.70;;;9.50;99.90;;;;;;5148581;27;20030;-27
2022/07/17 04:22:59;;;;;;;5.18;4.07;;;9.50;99.90;;;;;;5139008;27;20039;-27
2022/07/17 04:25:25;;;;;;;6.55;3.85;;;9.60;99.90;;;;;;5151275;27;20038;-27
2022/07/17 04:27:51;;;;;;;4.13;3.00;;;9.60;99.90;;;;;;5144992;27;20031;-27
2022/07/17 04:30:17;;;;;;;4.45;3.60;;;9.70;99.90;;;;;;5152204;27;20031;-24
2022/07/17 04:32:42;;;;;;;3.88;3.42;;;9.80;99.90;;;;;;5152276;27;20535;-24
2022/07/17 04:35:08;;;;;;;5.90;4.10;;;9.90;99.90;;;;;;5143172;27;20039;-24
2022/07/17 04:37:34;;;;;;;5.25;3.17;;;10.00;99.90;;;;;;5139582;27;20388;-24
2022/07/17 04:40:00;;;;;;;4.15;3.53;;;10.10;99.90;;;;;;5145149;27;20380;-24
2022/07/17 04:42:26;;;;;;;10.23;4.13;;;10.20;99.90;;;;;;5148978;27;20026;-24
2022/07/17 04:44:51;;;;;;;5.78;3.78;;;10.30;99.90;;;;;;5147319;27;20031;-24
2022/07/17 04:47:17;;;;;;;5.55;4.38;;;10.40;99.90;;;;;;5148954;27;20487;-24
2022/07/17 04:49:43;;;;;;;6.72;4.38;;;10.50;99.90;;;;;;5138192;27;20033;-24
2022/07/17 04:52:15;;;;;;;7.75;4.50;;;10.60;99.90;;;;;;5124663;27;20039;-24
2022/07/17 04:54:41;;;;;;;4.50;4.10;;;10.60;99.90;;;;;;5130428;27;20038;-24
2022/07/17 04:57:07;;;;;;;6.03;4.70;;;10.70;99.90;;;;;;5141641;27;20039;-24
2022/07/17 04:59:32;;;;;;;6.40;4.10;;;10.80;99.90;;;;;;5147024;27;20023;-24
2022/07/17 05:01:58;;;;;;;5.28;4.20;;;10.90;99.90;;;;;;5142524;27;20517;-25
2022/07/17 05:04:26;;;;;;;5.68;4.45;;;11.00;99.90;;;;;;5139694;27;20039;-25
2022/07/17 05:06:56;;;;;;;7.18;4.90;;;11.10;99.90;;;;;;5128886;27;20072;-25
2022/07/17 05:09:22;;;;;;;7.80;3.95;;;11.10;99.90;;;;;;5114557;27;20038;-26
2022/07/17 05:11:47;;;;;;;8.57;4.60;;;11.20;99.90;;;;;;5132776;27;20071;-24
2022/07/17 05:14:13;;;;;;;6.53;4.95;;;11.30;99.90;;;;;;5144893;27;20448;-24
2022/07/17 05:16:39;;;;;;;6.60;4.43;;;11.40;99.90;;;;;;5150378;27;20030;-24
2022/07/17 05:19:05;;;;;;;4.95;4.47;;;11.50;99.90;;;;;;5138983;27;20043;-27
2022/07/17 05:21:31;;;;;;;8.15;5.40;;;11.60;99.90;;;;;;5146252;27;20499;-27
2022/07/17 05:23:57;;;;;;;7.50;5.00;;;11.80;99.90;;;;;;5128642;27;20043;-27
2022/07/17 05:26:23;;;;;;;5.07;4.32;;;12.00;99.90;;;;;;5146740;27;20435;-27
2022/07/17 05:28:49;;;;;;;6.70;4.65;;;12.10;99.90;;;;;;5133898;27;20027;-27
2022/07/17 05:31:18;;;;;;;5.90;4.57;;;12.20;99.90;;;;;;5145340;27;20042;-27
2022/07/17 05:33:43;;;;;;;6.93;4.60;;;12.40;99.90;;;;;;5150968;27;20038;-27
2022/07/17 05:36:09;;;;;;;5.63;4.78;;;12.50;99.90;;;;;;5147903;27;20039;-27
2022/07/17 05:38:35;;;;;;;5.50;4.85;;;12.50;99.90;;;;;;5141489;27;20110;-27
2022/07/17 05:41:01;;;;;;;8.23;5.20;;;12.70;99.90;;;;;;5143476;27;20487;-27
2022/07/17 05:43:27;;;;;;;9.20;5.47;;;12.70;99.90;;;;;;5143991;27;20416;-27
2022/07/17 05:45:57;;;;;;;12.45;4.88;;;12.70;99.90;;;;;;5142747;27;20038;-27
2022/07/17 05:48:23;;;;;;;8.30;4.97;;;12.80;99.90;;;;;;5134378;27;20054;-27
2022/07/17 05:50:49;;;;;;;7.60;4.78;;;12.90;99.90;;;;;;5148337;27;20098;-27
2022/07/17 05:53:15;;;;;;;6.43;4.38;;;13.00;99.90;;;;;;5153443;27;20035;-27
2022/07/17 05:55:42;;;;;;;10.65;4.60;;;13.10;99.90;;;;;;5129651;27;20034;-27
2022/07/17 05:58:08;;;;;;;8.80;4.65;;;13.20;99.90;;;;;;5154467;27;20042;-27
2022/07/17 06:00:34;;;;;;;6.30;4.50;;;13.20;99.90;;;;;;5118250;27;20410;-27
2022/07/17 06:03:00;;;;;;;7.40;4.60;;;13.30;99.90;;;;;;5136523;27;20043;-27
2022/07/17 06:05:26;;;;;;;8.63;4.20;;;13.50;99.90;;;;;;5145135;27;20038;-27
2022/07/17 06:07:53;;;;;;;5.90;4.45;;;13.50;99.90;;;;;;5154419;27;20038;-27
2022/07/17 06:10:19;;;;;;;8.25;4.13;;;13.70;99.90;;;;;;5149561;27;20079;-27
2022/07/17 06:12:45;;;;;;;11.25;4.60;;;13.70;99.90;;;;;;5145792;27;20042;-27
2022/07/17 06:15:11;;;;;;;9.63;4.50;;;13.80;99.90;;;;;;5145681;27;20039;-27
2022/07/17 06:17:37;;;;;;;9.35;4.50;;;13.90;99.90;;;;;;5149860;27;20037;-23
2022/07/17 06:20:04;;;;;;;5.93;3.95;;;13.90;99.90;;;;;;5155751;27;20105;-24
2022/07/17 06:22:29;;;;;;;5.97;4.70;;;14.00;99.90;;;;;;5160589;27;20046;-24
2022/07/17 06:24:55;;;;;;;6.45;4.22;;;14.00;99.90;;;;;;5160481;27;20027;-24
2022/07/17 06:27:21;;;;;;;7.25;4.28;;;14.00;99.90;;;;;;5157599;27;20169;-27
2022/07/17 06:29:47;;;;;;;5.70;4.30;;;13.90;99.90;;;;;;5146545;27;20038;-27
2022/07/17 06:32:13;;;;;;;8.07;4.57;;;13.90;99.90;;;;;;5131701;27;20407;-27
2022/07/17 06:34:39;;;;;;;6.35;3.88;;;13.90;99.90;;;;;;5151973;27;20066;-27
2022/07/17 06:37:05;;;;;;;7.88;4.07;;;14.00;99.90;;;;;;5151698;27;20035;-27
2022/07/17 06:39:31;;;;;;;5.80;3.35;;;14.20;99.90;;;;;;5151075;27;20415;-27
2022/07/17 06:41:57;;;;;;;6.93;2.90;;;14.30;99.90;;;;;;5148926;27;20039;-27
2022/07/17 06:44:22;;;;;;;4.15;2.53;;;14.40;99.90;;;;;;5150227;27;20054;-27
2022/07/17 06:46:48;;;;;;;6.22;2.22;;;14.50;99.90;;;;;;5144773;27;20039;-27
2022/07/17 06:49:14;;;;;;;5.75;2.70;;;14.70;99.90;;;;;;5143955;27;20393;-27
2022/07/17 06:51:40;;;;;;;4.35;2.45;;;14.80;99.90;;;;;;5146016;27;20502;-27
2022/07/17 06:54:06;;;;;;;8.02;2.65;;;14.90;99.90;;;;;;5141491;27;20076;-27
2022/07/17 06:56:32;;;;;;;5.57;2.42;;;15.00;99.90;;;;;;5142568;27;20103;-27
2022/07/17 06:58:58;;;;;;;5.63;2.75;;;15.20;99.90;;;;;;5146974;27;20038;-27
2022/07/17 07:01:23;;;;;;;6.40;2.83;;;15.30;99.90;;;;;;5141524;27;20035;-24
2022/07/17 07:03:49;;;;;;;6.18;2.97;;;15.40;99.90;;;;;;5146698;27;20030;-24
2022/07/17 07:06:15;;;;;;;7.72;2.47;;;15.60;99.90;;;;;;5145814;27;20046;-24
2022/07/17 07:08:40;;;;;;;7.18;2.20;;;15.70;99.90;;;;;;5148381;27;20031;-24
2022/07/17 07:11:06;;;;;;;5.22;1.73;;;15.90;99.90;;;;;;5149170;27;20078;-24
2022/07/17 07:13:32;;;;;;;4.93;2.33;;;16.00;99.90;;;;;;5151855;27;20045;-24
2022/07/17 07:15:58;;;;;;;5.03;1.90;;;16.10;99.90;;;;;;5154772;27;20478;-24
2022/07/17 07:18:23;;;;;;;3.53;1.60;;;16.20;99.90;;;;;;5154841;27;20034;-24
2022/07/17 07:20:49;;;;;;;3.10;1.52;;;16.40;99.90;;;;;;5154366;27;20035;-24
2022/07/17 07:23:15;;;;;;;6.75;1.52;;;16.50;99.90;;;;;;5154981;27;20425;-24
2022/07/17 07:25:43;;;;;;;4.65;1.50;;;16.60;99.90;;;;;;5136332;27;20031;-24
2022/07/17 07:28:08;;;;;;;4.60;1.40;;;16.80;99.90;;;;;;5134613;27;20053;-27
2022/07/17 07:30:34;;;;;;;3.30;1.25;;;16.90;99.90;;;;;;5141322;27;20038;-27
2022/07/17 07:33:00;;;;;;;5.55;1.83;;;17.00;99.90;;;;;;5127047;27;20039;-27
2022/07/17 07:35:25;;;;;;;4.35;1.67;;;17.10;99.90;;;;;;5142286;27;20038;-27
2022/07/17 07:37:51;;;;;;;3.90;1.45;;;17.30;99.90;;;;;;5149538;27;20031;-27
2022/07/17 07:40:17;;;;;;;3.33;1.20;;;17.50;99.90;;;;;;5148238;27;20034;-27
2022/07/17 07:42:42;;;;;;;1.40;1.20;;;17.50;99.90;;;;;;5133627;27;20031;-27
2022/07/17 07:45:08;;;;;;;4.70;1.85;;;17.60;99.90;;;;;;5151289;27;20111;-27
2022/07/17 07:47:44;;;;;;;5.07;1.70;;;17.80;99.90;;;;;;5152358;27;20171;-27
2022/07/17 07:50:11;;;;;;;3.90;1.20;;;17.80;99.90;;;;;;5148575;27;20042;-27
2022/07/17 07:52:38;;;;;;;4.35;1.70;;;17.90;99.90;;;;;;5143333;27;20505;-27
2022/07/17 07:55:04;;;;;;;5.25;1.30;;;17.90;99.90;;;;;;5140652;27;20067;-27
2022/07/17 07:57:30;;;;;;;3.55;1.35;;;18.00;99.90;;;;;;5120656;27;20502;-27
2022/07/17 07:59:56;;;;;;;4.90;1.40;;;18.20;99.90;;;;;;5142787;27;20041;-25
2022/07/17 08:02:22;;;;;;;1.90;1.10;;;18.40;99.90;;;;;;5141919;27;20039;-24
2022/07/17 08:04:48;;;;;;;4.88;1.33;;;18.40;99.90;;;;;;5128563;27;20099;-24
2022/07/17 08:07:14;;;;;;;4.03;1.60;;;18.60;99.90;;;;;;5151546;27;20443;-27
2022/07/17 08:09:40;;;;;;;6.97;1.60;;;18.70;99.90;;;;;;5139416;27;20023;-27
2022/07/17 08:12:05;;;;;;;2.80;1.00;;;18.70;99.90;;;;;;5130100;27;20479;-27
2022/07/17 08:14:31;;;;;;;6.00;1.52;;;18.80;99.90;;;;;;5143409;27;20041;-27
2022/07/17 08:16:57;;;;;;;4.90;1.45;;;18.80;99.90;;;;;;5133726;27;20391;-27
2022/07/17 08:19:22;;;;;;;3.83;1.63;;;18.90;99.90;;;;;;5150661;27;20031;-27
2022/07/17 08:21:48;;;;;;;5.10;1.40;;;19.00;99.90;;;;;;5151212;27;20546;-27
2022/07/17 08:24:14;;;;;;;3.97;1.30;;;19.30;99.90;;;;;;5137579;27;20403;-28
2022/07/17 08:26:40;;;;;;;2.53;1.10;;;19.50;99.90;;;;;;5156706;27;20393;-24
2022/07/17 08:29:05;;;;;;;2.92;1.27;;;19.60;99.90;;;;;;5156701;27;20042;-24
2022/07/17 08:31:31;;;;;;;4.45;1.30;;;19.80;99.90;;;;;;5157532;27;20038;-24
2022/07/17 08:33:57;;;;;;;5.55;1.38;;;20.00;99.90;;;;;;5156991;27;20050;-24
2022/07/17 08:36:22;;;;;;;4.40;1.33;;;20.10;99.90;;;;;;5157441;27;20034;-24
2022/07/17 08:38:48;;;;;;;4.03;1.17;;;20.10;99.90;;;;;;5157590;27;20034;-24
2022/07/17 08:41:16;;;;;;;3.58;1.42;;;20.20;98.60;;;;;;5153555;27;20037;-25
2022/07/17 08:43:42;;;;;;;5.25;1.48;;;20.40;97.70;;;;;;5153390;27;20039;-28
2022/07/17 08:46:12;;;;;;;4.32;1.40;;;20.60;97.40;;;;;;5152018;27;20034;-28
2022/07/17 08:48:41;;;;;;;3.00;1.10;;;20.80;92.90;;;;;;5136209;27;20441;-28
2022/07/17 08:51:08;;;;;;;4.68;1.17;;;20.80;95.30;;;;;;5147569;27;20141;-28
2022/07/17 08:53:34;;;;;;;4.80;1.23;;;21.00;95.40;;;;;;5143208;27;20399;-28
2022/07/17 08:55:59;;;;;;;4.93;1.40;;;21.10;94.40;;;;;;5143507;27;20034;-28
2022/07/17 08:58:25;;;;;;;3.05;1.40;;;21.30;92.20;;;;;;5148587;27;20043;-28
2022/07/17 09:00:51;;;;;;;8.02;1.50;;;21.20;91.50;;;;;;5151306;27;20305;-28
2022/07/17 09:03:18;;;;;;;3.95;1.40;;;21.30;92.40;;;;;;5146745;27;20482;-28
2022/07/17 09:05:45;;;;;;;3.92;1.23;;;21.50;92.00;;;;;;5151756;27;20035;-28
2022/07/17 09:08:19;;;;;;;5.10;1.70;;;21.70;88.20;;;;;;5144994;27;20090;-28
2022/07/17 09:10:47;;;;;;;3.20;1.48;;;21.50;90.70;;;;;;5127668;27;20039;-28
2022/07/17 09:13:24;;;;;;;4.10;1.33;;;21.70;92.20;;;;;;5147940;27;20387;-28
2022/07/17 09:15:52;;;;;;;4.38;1.50;;;22.00;93.20;;;;;;5142414;27;20028;-28
2022/07/17 09:18:19;;;;;;;2.90;1.15;;;22.20;88.60;;;;;;5146114;27;20043;-28
2022/07/17 09:20:53;;;;;;;3.72;1.35;;;22.50;86.20;;;;;;5135790;27;20026;-28
2022/07/17 09:23:20;;;;;;;4.10;1.50;;;22.80;85.60;;;;;;5138117;27;20042;-28
2022/07/17 09:25:53;;;;;;;1.98;1.13;;;23.00;90.30;;;;;;5140642;27;20043;-29
2022/07/17 09:28:20;;;;;;;3.78;1.75;;;23.20;80.20;;;;;;5150038;27;20038;-28
2022/07/17 09:30:55;;;;;;;4.63;1.65;;;23.30;88.80;;;;;;5137580;27;20506;-25
2022/07/17 09:33:24;;;;;;;2.25;1.38;;;23.60;85.80;;;;;;5137890;27;20099;-25
2022/07/17 09:35:55;;;;;;;3.90;1.20;;;23.80;89.00;;;;;;5138360;27;20490;-25
2022/07/17 09:38:42;;;;;;;4.30;1.35;;;23.90;84.80;;;;;;5138435;27;20058;-25
2022/07/17 09:41:15;;;;;;;2.63;1.10;;;24.10;66.40;;;;;;5119764;27;20039;-25
2022/07/17 09:43:52;;;;;;;1.77;1.13;;;24.10;78.50;;;;;;5138564;27;20043;-25
2022/07/17 09:46:26;;;;;;;3.25;1.17;;;24.40;65.70;;;;;;5140013;27;20114;-25
2022/07/17 09:49:00;;;;;;;5.10;1.15;;;24.50;66.80;;;;;;5139437;27;20043;-25
2022/07/17 09:51:27;;;;;;;3.30;1.10;;;24.70;71.90;;;;;;5138794;27;20031;-25
2022/07/17 09:54:05;;;;;;;2.40;1.10;;;24.90;66.20;;;;;;5120328;27;20054;-25
2022/07/17 09:56:33;;;;;;;3.70;1.15;;;24.80;60.00;;;;;;5139244;27;20042;-25
2022/07/17 09:59:07;;;;;;;2.92;1.02;;;24.90;65.20;;;;;;5139091;27;20074;-25
2022/07/17 10:01:34;;;;;;;2.75;1.00;;;25.10;59.80;;;;;;5138365;27;20110;-25
2022/07/17 10:04:01;;;;;;;3.80;1.30;;;25.10;62.00;;;;;;5137931;27;20050;-25
2022/07/17 10:06:27;;;;;;;3.00;1.00;;;25.30;60.40;;;;;;5138418;27;20111;-26
2022/07/17 10:08:54;;;;;;;4.25;1.17;;;25.50;59.40;;;;;;5141961;27;20759;-26
2022/07/17 10:11:23;;;;;;;3.35;1.30;;;25.40;57.10;;;;;;5147070;27;20509;-26
2022/07/17 10:13:54;;;;;;;2.20;1.15;;;25.40;56.40;;;;;;5153953;27;20026;-26
2022/07/17 10:16:27;;;;;;;3.40;0.95;;;25.50;56.80;;;;;;5142581;27;20042;-26
2022/07/17 10:18:55;;;;;;;5.55;1.40;;;25.30;53.90;;;;;;5153178;27;20030;-26
2022/07/17 10:21:22;;;;;;;4.15;1.20;;;25.20;56.60;;;;;;5147102;27;20054;-26
2022/07/17 10:23:53;;;;;;;1.75;0.88;;;25.40;56.70;;;;;;5145726;27;20031;-26
2022/07/17 10:26:39;;;;;;;2.72;1.10;;;25.70;54.00;;;;;;5148779;27;20829;-26
2022/07/17 10:29:32;;;;;;;3.20;1.17;;;26.00;52.20;;;;;;5147417;27;20073;-26
2022/07/17 10:31:59;;;;;;;1.98;1.05;;;25.60;52.80;;;;;;5144051;27;20046;-26
2022/07/17 10:35:07;;;;;;;1.45;1.00;;;25.80;52.80;;;;;;5147272;27;20040;-26
2022/07/17 10:37:40;;;;;;;3.15;1.35;;;25.90;51.50;;;;;;5110110;27;20405;-26
2022/07/17 10:40:19;;;;;;;4.45;1.50;;;26.20;50.10;;;;;;5154998;27;20083;-26
2022/07/17 10:42:57;;;;;;;2.83;0.95;;;26.20;51.30;;;;;;5152479;27;20035;-26
2022/07/17 10:45:39;;;;;;;2.47;1.10;;;26.20;51.30;;;;;;5145550;27;20407;-26
2022/07/17 10:48:19;;;;;;;3.38;1.20;;;26.30;51.20;;;;;;5151703;27;20039;-26
2022/07/17 10:50:53;;;;;;;3.30;1.38;;;26.70;51.50;;;;;;5145191;27;20487;-24
2022/07/17 10:53:20;;;;;;;2.65;1.20;;;27.00;50.90;;;;;;5145532;27;20718;-24
2022/07/17 10:55:48;;;;;;;3.17;1.00;;;26.90;50.20;;;;;;5147636;27;20527;-23
2022/07/17 10:58:36;;;;;;;3.00;1.15;;;26.80;50.20;;;;;;5146599;27;20039;-25
2022/07/17 11:01:13;;;;;;;2.45;0.95;;;27.00;49.60;;;;;;5126968;27;20047;-26
2022/07/17 11:03:44;;;;;;;2.05;1.10;;;27.00;50.80;;;;;;5147678;27;20492;-26
2022/07/17 11:06:18;;;;;;;1.80;0.90;;;27.30;50.10;;;;;;5143668;27;20176;-26
2022/07/17 11:08:51;;;;;;;3.92;1.25;;;26.90;48.00;;;;;;5147980;27;20038;-26
2022/07/17 11:11:34;;;;;;;2.47;1.08;;;27.10;49.00;;;;;;5145582;27;20175;-26
2022/07/17 11:14:21;;;;;;;4.15;1.67;;;27.30;48.90;;;;;;5148007;27;20384;-26
2022/07/17 11:16:58;;;;;;;3.75;1.40;;;27.60;48.40;;;;;;5139704;27;20043;-27
2022/07/17 11:19:38;;;;;;;3.05;1.10;;;27.90;47.50;;;;;;5145426;27;20516;-27
2022/07/17 11:22:07;;;;;;;2.42;1.10;;;28.00;46.50;;;;;;5148684;27;20035;-30
2022/07/17 11:24:44;;;;;;;2.67;1.00;;;28.20;47.00;;;;;;5148075;27;20035;-24
2022/07/17 11:27:13;;;;;;;3.60;1.15;;;28.30;46.30;;;;;;5145478;27;20407;-24
2022/07/17 11:29:40;;;;;;;2.70;1.20;;;28.30;46.40;;;;;;5145347;27;20088;-25
2022/07/17 11:32:08;;;;;;;3.58;1.10;;;28.30;46.40;;;;;;5150426;27;20050;-24
2022/07/17 11:34:34;;;;;;;2.60;1.15;;;28.40;45.90;;;;;;5147056;27;20041;-24
2022/07/17 11:37:02;;;;;;;2.28;1.23;;;28.40;46.10;;;;;;5145322;27;20039;-24
2022/07/17 11:39:39;;;;;;;3.00;1.27;;;28.20;46.50;;;;;;5146438;27;20047;-25
2022/07/17 11:42:11;;;;;;;4.25;1.20;;;28.40;45.60;;;;;;5130257;27;20046;-24
2022/07/17 11:44:40;;;;;;;1.80;1.10;;;28.30;44.90;;;;;;5125887;27;20049;-25
2022/07/17 11:47:06;;;;;;;2.38;1.15;;;28.00;45.70;;;;;;5149293;27;20035;-25
2022/07/17 11:49:35;;;;;;;1.85;1.30;;;27.50;45.10;;;;;;5149785;27;20041;-24
2022/07/17 11:52:15;;;;;;;2.50;1.38;;;27.80;47.30;;;;;;5151709;27;20031;-24
2022/07/17 11:54:55;;;;;;;2.40;1.30;;;28.40;45.90;;;;;;5131723;27;20047;-26
2022/07/17 11:57:23;;;;;;;2.03;1.25;;;28.10;42.90;;;;;;5146762;27;20061;-28
2022/07/17 11:59:49;;;;;;;1.35;0.90;;;27.90;45.00;;;;;;5146824;27;20035;-28
2022/07/17 12:02:17;;;;;;;2.92;1.70;;;28.10;44.60;;;;;;5147899;27;20431;-28
2022/07/17 12:04:54;;;;;;;3.60;1.40;;;28.30;45.20;;;;;;5142484;27;20050;-29
2022/07/17 12:07:25;;;;;;;2.05;1.30;;;28.60;43.10;;;;;;5145447;27;20031;-29
2022/07/17 12:09:52;;;;;;;1.73;1.48;;;28.30;44.90;;;;;;5145551;27;20507;-29
2022/07/17 12:12:26;;;;;;;3.35;1.40;;;28.30;44.40;;;;;;5146826;27;20122;-29
2022/07/17 12:14:55;;;;;;;2.53;1.30;;;28.60;44.40;;;;;;5146702;27;20512;-29
2022/07/17 12:17:21;;;;;;;2.38;1.33;;;29.00;44.90;;;;;;5128616;27;20027;-30
2022/07/17 12:19:47;;;;;;;3.80;1.40;;;28.90;44.20;;;;;;5148173;27;20071;-28
2022/07/17 12:22:13;;;;;;;2.47;1.70;;;29.10;44.20;;;;;;5149332;27;20095;-28
2022/07/17 12:24:41;;;;;;;2.50;1.60;;;29.20;42.60;;;;;;5149589;27;20031;-28
2022/07/17 12:27:10;;;;;;;2.30;1.60;;;29.10;44.10;;;;;;5148651;27;20042;-28
2022/07/17 12:29:39;;;;;;;3.17;1.35;;;29.00;43.00;;;;;;5148287;27;20395;-29
2022/07/17 12:32:10;;;;;;;2.15;1.38;;;28.90;43.00;;;;;;5145613;27;20112;-28
2022/07/17 12:34:44;;;;;;;2.78;1.40;;;28.60;42.90;;;;;;5144420;27;20039;-28
2022/07/17 12:37:24;;;;;;;3.95;1.50;;;28.80;42.50;;;;;;5141606;27;20074;-28
2022/07/17 12:39:50;;;;;;;2.67;1.30;;;29.10;43.10;;;;;;5143660;27;20114;-28
2022/07/17 12:42:17;;;;;;;1.48;1.35;;;29.40;42.60;;;;;;5144533;27;20031;-28
2022/07/17 12:44:43;;;;;;;2.95;1.45;;;29.60;42.80;;;;;;5147251;27;20035;-28
2022/07/17 12:47:09;;;;;;;3.63;1.63;;;29.80;42.60;;;;;;5128463;27;20051;-28
2022/07/17 12:49:35;;;;;;;1.67;1.40;;;30.40;42.90;;;;;;5146549;27;20060;-28
2022/07/17 12:52:02;;;;;;;1.83;1.40;;;30.60;42.30;;;;;;5144662;27;20039;-29
2022/07/17 12:54:27;;;;;;;2.45;1.38;;;31.00;40.80;;;;;;5127509;27;20042;-29